• Join FlightAware (Why Join?)
  • Login
  • US Flag 
07:56PM EDT


 

Airport Tracker/Info


-or-


 

Live Flight TrackerFlight Track Log ✈ C-GMNJ ✈ 11-Oct-2013 ✈ 1B9 - CYOO

Flight Track Log - Related Links

Times and Time Zones

All times are in EDT time to prevent confusion due to time zone crossing. See the C-GMNJ flight status page for this flight to view local times or setup timezone preferences in your user account.

Time Position Orientation Groundspeed Altitude Reporting Facility
EDT Latitude Longitude Course Direction KTS MPH feet Rate Location/Type
03:19PM 42.0500 -71.3000 272° West 154 177 1,900  Level KA90
03:20PM 42.0500 -71.3167 270° West 151 174 2,300 300 Climbing KA90
03:21PM 42.0833 -71.3667 312° West 171 197 2,400 240 Climbing KA90
03:22PM 42.1333 -71.4000 334° Northwest 156 180 2,800 360 Climbing KA90
03:22PM 42.1375 -71.4267 282° West 158 182 3,000 540 Climbing Boston Center
03:23PM 42.1439 -71.4433 297° West 159 183 3,300 660 Climbing Boston Center
03:24PM 42.1589 -71.4933 292° West 152 175 3,900 600 Climbing Boston Center
03:25PM 42.0997 -71.5390 272° West  Level Estimated
03:25PM 42.1781 -71.5464 296° West 154 177 4,600  Level Boston Center
03:26PM 42.1908 -71.5967 289° West 138 159 5,300 660 Climbing Boston Center
03:27PM 42.2081 -71.6414 297° West 141 162 6,000 660 Climbing Boston Center
03:28PM 42.2269 -71.6944 296° West 141 162 6,700 600 Climbing Boston Center
03:29PM 42.2439 -71.7417 296° West 140 161 7,300 600 Climbing Boston Center
03:30PM 42.2569 -71.7922 289° West 139 160 7,900 360 Climbing Boston Center
03:31PM 42.2675 -71.8397 287° West 163 188 8,100 60 Climbing Boston Center
03:32PM 42.2678 -71.9097 270° West 175 201 8,100  Level Boston Center
03:33PM 42.2703 -71.9800 273° West 179 206 8,100  Level Boston Center
03:34PM 42.2706 -72.0472 270° West 172 198 8,100  Level Boston Center
03:35PM 42.2728 -72.1033 273° West 167 192 8,100  Level Boston Center
03:36PM 42.2731 -72.1681 270° West 166 191 8,100  Level Boston Center
03:37PM 42.2753 -72.2297 273° West 163 188 8,100  Level Boston Center
03:38PM 42.2772 -72.2886 273° West 163 188 8,100  Level Boston Center
03:39PM 42.2775 -72.3475 270° West 162 186 8,100  Level Boston Center
03:40PM 42.2775 -72.4036 270° West 162 186 8,100  Level Boston Center
03:41PM 42.2794 -72.4681 272° West 163 188 8,100  Level Boston Center
03:42PM 42.2794 -72.5300 270° West 162 186 8,100  Level Boston Center
03:43PM 42.2814 -72.5917 272° West 163 188 8,100  Level Boston Center
03:44PM 42.2836 -72.6589 273° West 164 189 8,100  Level Boston Center
03:45PM 42.2875 -72.7347 274° West 165 190 8,100  Level Boston Center
03:46PM 42.2872 -72.7964 270° West 163 188 8,100  Level Boston Center
03:47PM 42.2892 -72.8583 272° West 164 189 8,100  Level Boston Center
03:48PM 42.3036 -72.9231 287° West 163 188 8,100 -60 Level Boston Center
03:49PM 42.3303 -72.9708 307° West 162 186 8,000  Descending Boston Center
03:50PM 42.3531 -73.0217 301° West 161 185 8,100  Climbing Boston Center
03:51PM 42.3758 -73.0639 306° West 158 182 8,100  Level Boston Center
03:52PM 42.4025 -73.1150 305° West 159 183 8,100  Level Boston Center
03:53PM 42.4272 -73.1658 303° West 161 185 8,100  Level Boston Center
03:54PM 42.4539 -73.2167 305° West 163 188 8,100  Level Boston Center
03:55PM 42.4786 -73.2706 302° West 162 186 8,100 -60 Level Boston Center
03:56PM 42.5075 -73.3217 307° West 162 186 8,000  Descending Boston Center
03:57PM 42.5319 -73.3728 303° West 161 185 8,100  Climbing Boston Center
03:58PM 42.5544 -73.4236 301° West 158 182 8,100  Level Boston Center
03:59PM 42.5792 -73.4692 306° West 158 182 8,100  Level Boston Center
04:00PM 42.6036 -73.5175 305° West 156 180 8,100  Level Boston Center
04:01PM 42.6303 -73.5689 305° West 155 178 8,100  Level Boston Center
04:02PM 42.6528 -73.6172 302° West 155 178 8,100  Level Boston Center
04:03PM 42.6794 -73.6658 307° West 157 181 8,100  Level Boston Center
04:04PM 42.7017 -73.7172 300° West 159 183 8,100  Level Boston Center
04:05PM 42.7261 -73.7656 305° West 158 182 8,100  Level Boston Center
04:06PM 42.7486 -73.8086 305° West 159 183 8,100 -60 Level Boston Center
04:07PM 42.7622 -73.8767 285° West 170 196 8,000 -60 Descending Boston Center
04:08PM 42.7742 -73.9364 285° West 162 186 8,000  Level Boston Center
04:09PM 42.7878 -73.9989 287° West 164 189 8,100  Climbing Boston Center
04:10PM 42.8014 -74.0617 286° West 167 192 8,100 -60 Level Boston Center
04:11PM 42.8131 -74.1214 285° West 167 192 8,000 -60 Descending Boston Center
04:12PM 42.8267 -74.1839 287° West 166 191 8,000  Level Boston Center
04:13PM 42.8383 -74.2381 286° West 164 189 8,100  Climbing Boston Center
04:15PM 42.8519 -74.3122 284° West 163 188 8,100 -60 Level Boston Center
04:16PM 42.8675 -74.3750 289° West 164 189 8,000 -60 Descending Boston Center
04:17PM 42.8811 -74.4378 287° West 164 189 8,000  Level Boston Center
04:18PM 42.8925 -74.4947 285° West 164 189 8,000  Level Boston Center
04:19PM 42.9058 -74.5603 286° West 164 189 8,000  Level Boston Center
04:20PM 42.9172 -74.6203 285° West 165 190 8,000  Level Boston Center
04:21PM 42.9306 -74.6803 287° West 166 191 8,100  Climbing Boston Center
04:22PM 42.9400 -74.7375 283° West 163 188 8,100 -60 Level Boston Center
04:23PM 42.9533 -74.7947 288° West 164 189 8,000 -60 Descending Boston Center
04:24PM 42.9644 -74.8603 283° West 164 189 8,000  Level Boston Center
04:25PM 42.9778 -74.9206 287° West 163 188 8,000  Level Boston Center
04:26PM 42.9872 -74.9633 287° West 164 189 8,000  Level Boston Center
04:27PM 42.9983 -75.0264 284° West 169 194 8,100  Climbing Boston Center
04:28PM 43.0136 -75.0839 290° West 165 190 8,000 -60 Descending Boston Center
04:29PM 43.0228 -75.1467 281° West 170 196 8,000  Level Boston Center
04:30PM 43.0339 -75.2042 285° West 166 191 8,100  Climbing Boston Center
04:31PM 43.0406 -75.2697 278° West 163 188 8,000 -60 Descending Boston Center
04:32PM 43.0492 -75.3383 280° West 165 190 8,000  Level Boston Center
04:33PM 43.0581 -75.4011 281° West 167 192 8,000  Level Boston Center
04:35PM 43.0733 -75.5272 279° West 168 193 8,000  Level Boston Center
04:36PM 43.0819 -75.5931 280° West 167 192 8,000  Level Boston Center
04:37PM 43.0908 -75.6558 281° West 168 193 8,100  Climbing Boston Center
04:38PM 43.0953 -75.7158 276° West 169 194 8,000 -60 Descending Boston Center
04:39PM 43.1039 -75.7817 280° West 166 191 8,000  Level Boston Center
04:41PM 43.1192 -75.8964 280° West 164 189 8,000  Level Boston Center
04:42PM 43.1278 -75.9567 281° West 167 192 8,000  Level Boston Center
04:43PM 43.1342 -76.0167 278° West 165 190 8,000  Level Boston Center
04:43PM 43.1428 -76.0714 282° West 164 189 8,000  Level Boston Center
04:45PM 43.1492 -76.1344 278° West 162 186 8,000  Level Boston Center
04:46PM 43.1575 -76.1975 280° West 163 188 8,100  Climbing Boston Center
04:47PM 43.1575 -76.2603 270° West 167 192 8,000 -60 Descending Boston Center
04:48PM 43.1575 -76.3228 270° West 165 190 8,000  Level Boston Center
04:49PM 43.1553 -76.3853 267° West 165 190 8,000  Level Boston Center
04:49PM 43.1547 -76.4264 269° West 164 189 8,000  Level Cleveland Center
04:50PM 43.1536 -76.4897 269° West 165 190 8,000  Level Cleveland Center
04:51PM 43.1517 -76.5508 268° West 164 189 8,100  Climbing Cleveland Center
04:52PM 43.1506 -76.6258 269° West 164 189 8,100 -60 Level Cleveland Center
04:54PM 43.1494 -76.6864 269° West 162 186 8,000 -60 Descending Cleveland Center
04:55PM 43.1453 -76.7481 265° West 163 188 8,000  Level Cleveland Center
04:56PM 43.1431 -76.8064 267° West 159 183 8,000  Level Cleveland Center
04:57PM 43.1417 -76.8786 269° West 159 183 8,100  Climbing Cleveland Center
04:58PM 43.1389 -76.9503 267° West 159 183 8,000 -120 Descending Cleveland Center
04:58PM 43.1394 -76.9806 271° West 158 182 8,000  Level Cleveland Center
04:59PM 43.1372 -77.0097 264° West 159 183 8,000  Level Cleveland Center
04:59PM 43.1369 -77.0467 269° West 158 182 8,000  Level Cleveland Center
05:00PM 43.1356 -77.0700 265° West 160 184 8,000 60 Level Cleveland Center
05:00PM 43.1369 -77.1075 273° West 158 182 8,100  Climbing Cleveland Center
05:01PM 43.1347 -77.1706 267° West 159 183 8,000 -120 Descending Cleveland Center
05:02PM 43.1317 -77.1900 258° West 160 184 8,000  Level Cleveland Center
05:02PM 43.1306 -77.2303 268° West 159 183 8,000  Level Cleveland Center
05:03PM 43.1294 -77.2619 267° West 159 183 8,000  Level Cleveland Center
05:03PM 43.1292 -77.2878 269° West 159 183 8,000  Level Cleveland Center
05:04PM 43.1272 -77.3219 266° West 160 184 8,000 60 Level Cleveland Center
05:04PM 43.1292 -77.3486 276° West 158 182 8,100  Climbing Cleveland Center
05:05PM 43.1258 -77.3814 262° West 158 182 8,000 -120 Descending Cleveland Center
05:06PM 43.1269 -77.4089 273° West 157 181 8,000  Level Cleveland Center
05:06PM 43.1236 -77.4392 261° West 156 180 8,000  Level Cleveland Center
05:06PM 43.1236 -77.4631 270° West 155 178 8,000  Level Cleveland Center
05:07PM 43.1219 -77.4983 266° West 156 180 8,000  Level Cleveland Center
05:07PM 43.1219 -77.5206 270° West 154 177 8,000  Level Cleveland Center
05:08PM 43.1203 -77.5567 266° West 156 180 8,000  Level Cleveland Center
05:08PM 43.1197 -77.5808 268° West 154 177 8,000  Level Cleveland Center
05:09PM 43.1175 -77.6264 266° West 154 177 8,000  Level Cleveland Center
05:09PM 43.1181 -77.6383 274° West 153 176 8,000 60 Level Cleveland Center
05:10PM 43.1158 -77.6844 266° West 154 177 8,100  Climbing Cleveland Center
05:10PM 43.1200 -77.6997 290° West 156 180 8,000 -120 Descending Cleveland Center
05:11PM 43.1242 -77.7408 278° West 154 177 8,000  Level Cleveland Center
05:11PM 43.1267 -77.7564 282° West 151 174 8,000 60 Level Cleveland Center
05:12PM 43.1306 -77.7989 277° West 154 177 8,100  Climbing Cleveland Center
05:12PM 43.1333 -77.8133 285° West 151 174 8,000 -120 Descending Cleveland Center
05:13PM 43.1372 -77.8553 277° West 152 175 8,000 60 Level Cleveland Center
05:13PM 43.1400 -77.8703 284° West 153 176 8,100 60 Climbing Cleveland Center
05:14PM 43.1444 -77.9247 276° West 153 176 8,100 -60 Level Cleveland Center
05:15PM 43.1347 -77.9808 257° West 154 177 8,000 -60 Descending Cleveland Center
05:16PM 43.1283 -78.0394 262° West 156 180 8,000  Level Cleveland Center
05:18PM 43.1222 -78.0964 262° West 154 177 8,000  Level Cleveland Center
05:19PM 43.1158 -78.1558 262° West 156 180 8,000  Level Cleveland Center
05:20PM 43.1069 -78.2244 260° West 154 177 8,000  Level Cleveland Center
05:21PM 43.0992 -78.2831 260° West 155 178 8,000  Level Cleveland Center
05:22PM 43.1039 -78.3408 276° West 161 185 8,000  Level Cleveland Center
05:23PM 43.1369 -78.3700 327° Northwest 145 167 8,000  Level Cleveland Center
05:24PM 43.1764 -78.3875 342° North 147 169 8,000  Level Cleveland Center
05:25PM 43.2133 -78.4147 332° Northwest 150 173 8,000  Level Cleveland Center
05:26PM 43.2564 -78.4453 333° Northwest 151 174 8,000  Level Cleveland Center
05:27PM 43.2950 -78.4706 335° Northwest 147 169 8,000  Level Cleveland Center
05:28PM 43.3339 -78.4969 334° Northwest 149 171 8,000  Level Cleveland Center
05:29PM 43.3689 -78.5192 335° Northwest 145 167 8,000  Level Cleveland Center
05:29PM 43.3833 -78.5167 North 140 161 8,000  Level Toronto Center
05:30PM 43.4333 -78.5333 346° North 150 173 8,000  Level Toronto Center
05:31PM 43.4667 -78.5500 340° North 150 173 8,000  Level Toronto Center
05:32PM 43.5000 -78.6000 313° West 140 161 8,000 -60 Level Toronto Center
05:33PM 43.5333 -78.6167 340° North 150 173 7,900 -300 Descending Toronto Center
05:34PM 43.5667 -78.6500 324° Northwest 150 173 7,400 -540 Descending Toronto Center
05:35PM 43.6000 -78.6667 340° North 150 173 6,900 -540 Descending Toronto Center
05:36PM 43.6333 -78.7167 313° West 150 173 6,400 -600 Descending Toronto Center
05:37PM 43.6500 -78.7500 305° West 150 173 5,800 -600 Descending Toronto Center
05:38PM 43.6833 -78.8000 313° West 140 161 5,200 -720 Descending Toronto Center
05:39PM 43.7167 -78.8500 313° West 150 173 4,400 -780 Descending Toronto Center
05:40PM 43.7333 -78.9000 295° West 150 173 3,700 -660 Descending Toronto Center
05:41PM 43.7667 -78.9333 324° Northwest 150 173 3,100 -360 Descending Toronto Center
05:42PM 43.7833 -78.9667 305° West 140 161 3,000 -60 Descending Toronto Center
05:43PM 43.8167 -79.0167 313° West 120 138 3,000  Level Toronto Center
05:44PM 43.8333 -79.0333 324° Northwest 120 138 3,000  Level Toronto Center
05:45PM 43.8500 -79.0833 295° West 120 138 3,000  Level Toronto Center
05:46PM 43.8667 -79.1000 324° Northwest 120 138 3,000  Level Toronto Center
05:47PM 43.9000 -79.1500 313° West 110 127 3,000 -240 Level Toronto Center
05:49PM 43.9500 -79.1500 360° North 110 127 2,300 -240 Descending Toronto Center
05:50PM 43.9667 -79.1167 55° Northeast 90 104 2,300  Level Toronto Center
05:51PM 43.9833 -79.1000 36° Northeast 80 92 2,300  Level Toronto Center
05:52PM 43.9667 -79.0833 144° Southeast 100 115 2,300  Level Toronto Center
05:53PM 43.9500 -79.0333 115° Southeast 90 104 2,300  Level Toronto Center
05:54PM 43.9500 -79.0000 90° East 90 104 2,300 -180 Level Toronto Center
05:55PM 43.9333 -78.9833 144° Southeast 80 92 2,000 -420 Descending Toronto Center
05:56PM 43.9333 -78.9333 90° East 80 92 1,500 -540 Descending Toronto Center